createdAt,value
2022-10-23T00:01:02.469Z,0.90
2022-10-23T00:03:30.384Z,0.80
2022-10-23T00:05:59.661Z,0.70
2022-10-23T00:08:27.683Z,0.73
2022-10-23T00:10:55.730Z,1.13
2022-10-23T00:13:23.687Z,1.23
2022-10-23T00:18:20.449Z,1.02
2022-10-23T00:20:48.423Z,1.00
2022-10-23T00:23:17.994Z,0.50
2022-10-23T00:25:45.900Z,0.55
2022-10-23T00:28:13.898Z,0.85
2022-10-23T00:30:41.827Z,0.70
2022-10-23T00:33:10.252Z,0.82
2022-10-23T00:35:40.869Z,0.90
2022-10-23T00:38:09.649Z,0.70
2022-10-23T00:40:40.526Z,0.75
2022-10-23T00:43:08.626Z,0.50
2022-10-23T00:45:36.573Z,0.88
2022-10-23T00:48:05.637Z,1.13
2022-10-23T00:50:34.432Z,0.75
2022-10-23T00:53:04.805Z,0.70
2022-10-23T00:55:34.733Z,0.40
2022-10-23T00:58:04.172Z,0.50
2022-10-23T01:00:43.026Z,0.60
2022-10-23T01:03:11.039Z,1.05
2022-10-23T01:05:49.911Z,0.70
2022-10-23T01:08:26.463Z,0.70
2022-10-23T01:11:03.007Z,1.40
2022-10-23T01:13:40.680Z,0.85
2022-10-23T01:16:14.952Z,0.90
2022-10-23T01:18:48.858Z,0.90
2022-10-23T01:21:23.286Z,0.73
2022-10-23T01:24:09.322Z,0.85
2022-10-23T01:26:48.110Z,0.80
2022-10-23T01:29:27.153Z,0.70
2022-10-23T01:32:00.126Z,0.80
2022-10-23T01:34:50.733Z,1.08
2022-10-23T01:37:24.251Z,1.20
2022-10-23T01:39:56.337Z,1.02
2022-10-23T01:42:30.859Z,0.93
2022-10-23T01:45:03.604Z,1.10
2022-10-23T01:50:03.356Z,0.85
2022-10-23T01:52:31.444Z,0.90
2022-10-23T01:55:01.590Z,0.80
2022-10-23T01:57:32.351Z,0.77
2022-10-23T02:00:05.510Z,0.73
2022-10-23T02:02:34.764Z,0.60
2022-10-23T02:05:07.526Z,0.93
2022-10-23T02:10:05.977Z,1.00
2022-10-23T02:12:42.364Z,0.70
2022-10-23T02:15:15.967Z,0.70
2022-10-23T02:17:51.677Z,0.52
2022-10-23T02:20:23.765Z,0.88
2022-10-23T02:22:59.401Z,0.75
2022-10-23T02:25:34.317Z,0.60
2022-10-23T02:28:06.906Z,0.85
2022-10-23T02:30:38.842Z,0.50
2022-10-23T02:33:09.078Z,0.68
2022-10-23T02:35:37.215Z,1.00
2022-10-23T02:38:25.341Z,0.82
2022-10-23T02:40:54.787Z,0.50
2022-10-23T02:43:29.264Z,0.65
2022-10-23T02:46:07.677Z,0.52
2022-10-23T02:48:43.932Z,0.90
2022-10-23T02:51:15.801Z,0.70
2022-10-23T02:53:50.198Z,0.70
2022-10-23T02:56:25.543Z,0.68
2022-10-23T02:59:06.158Z,0.68
2022-10-23T03:01:41.203Z,1.08
2022-10-23T03:04:12.374Z,0.50
2022-10-23T03:06:40.515Z,0.50
2022-10-23T03:09:10.285Z,0.60
2022-10-23T03:11:38.207Z,0.57
2022-10-23T03:14:06.066Z,0.40
2022-10-23T03:16:35.584Z,0.50
2022-10-23T03:19:03.591Z,0.50
2022-10-23T03:21:31.581Z,0.90
2022-10-23T03:23:59.528Z,0.90
2022-10-23T03:26:27.465Z,1.70
2022-10-23T03:28:55.371Z,2.63
2022-10-23T03:31:23.353Z,3.17
2022-10-23T03:33:52.720Z,3.00
2022-10-23T03:36:20.695Z,2.67
2022-10-23T03:38:48.839Z,2.20
2022-10-23T03:41:16.813Z,3.97
2022-10-23T03:43:44.717Z,3.95
2022-10-23T03:46:13.088Z,7.57
2022-10-23T03:48:41.997Z,8.10
2022-10-23T03:51:11.315Z,3.28
2022-10-23T03:53:39.320Z,1.98
2022-10-23T03:56:07.787Z,0.80
2022-10-23T03:58:35.740Z,0.50
2022-10-23T04:01:03.784Z,0.47
2022-10-23T04:03:31.900Z,0.40
2022-10-23T04:05:59.855Z,0.50
2022-10-23T04:08:29.325Z,0.60
2022-10-23T04:10:57.491Z,0.63
2022-10-23T04:13:34.569Z,0.60
2022-10-23T04:16:02.710Z,0.50
2022-10-23T04:18:30.646Z,0.50
2022-10-23T04:20:58.656Z,0.73
2022-10-23T04:23:26.702Z,0.85
2022-10-23T04:25:58.910Z,0.50
2022-10-23T04:28:27.281Z,0.63
2022-10-23T04:30:55.273Z,0.40
2022-10-23T04:33:23.293Z,0.40
2022-10-23T04:35:51.417Z,0.38
2022-10-23T04:38:19.461Z,0.40
2022-10-23T04:40:47.399Z,0.50
2022-10-23T04:43:16.734Z,0.38
2022-10-23T04:45:44.771Z,0.70
2022-10-23T04:48:12.689Z,0.70
2022-10-23T04:50:40.625Z,2.08
2022-10-23T04:53:10.553Z,0.90
2022-10-23T04:55:38.464Z,0.60
2022-10-23T04:58:06.383Z,0.60
2022-10-23T05:00:35.771Z,0.50
2022-10-23T05:03:03.774Z,0.70
2022-10-23T05:05:32.063Z,0.40
2022-10-23T05:08:00.010Z,0.50
2022-10-23T05:10:28.059Z,0.50
2022-10-23T05:12:56.026Z,0.40
2022-10-23T05:15:24.060Z,0.40
2022-10-23T05:17:56.605Z,0.60
2022-10-23T05:20:29.373Z,0.52
2022-10-23T05:25:25.765Z,0.57
2022-10-23T05:27:53.981Z,0.47
2022-10-23T05:30:22.131Z,0.73
2022-10-23T05:32:50.117Z,0.50
2022-10-23T05:35:23.215Z,0.40
2022-10-23T05:37:53.521Z,0.50
2022-10-23T05:40:21.583Z,0.70
2022-10-23T05:42:49.689Z,0.50
2022-10-23T05:45:17.796Z,0.73
2022-10-23T05:47:46.059Z,0.75
2022-10-23T05:50:14.487Z,0.70
2022-10-23T05:52:46.544Z,0.40
2022-10-23T05:55:14.538Z,0.45
2022-10-23T05:57:42.775Z,0.40
2022-10-23T06:00:12.426Z,0.50
2022-10-23T06:02:40.621Z,0.32
2022-10-23T06:05:09.362Z,0.30
2022-10-23T06:07:37.793Z,0.30
2022-10-23T06:10:08.044Z,0.30
2022-10-23T06:12:36.134Z,0.73
2022-10-23T06:15:04.822Z,0.60
2022-10-23T06:17:32.934Z,0.70
2022-10-23T06:20:02.536Z,0.30
2022-10-23T06:22:30.931Z,0.52
2022-10-23T06:24:58.934Z,0.50
2022-10-23T06:27:28.274Z,0.43
2022-10-23T06:29:56.187Z,0.57
2022-10-23T06:32:24.199Z,0.40
2022-10-23T06:34:52.181Z,0.50
2022-10-23T06:37:20.217Z,0.47
2022-10-23T06:39:48.191Z,0.40
2022-10-23T06:42:16.179Z,0.45
2022-10-23T06:44:45.561Z,0.40
2022-10-23T06:47:14.375Z,0.77
2022-10-23T06:49:42.465Z,0.30
2022-10-23T06:52:14.435Z,0.70
2022-10-23T06:54:56.697Z,0.30
2022-10-23T06:57:45.787Z,0.32
2022-10-23T07:00:35.746Z,0.63
2022-10-23T07:03:24.189Z,0.35
2022-10-23T07:05:53.165Z,0.60
2022-10-23T07:08:21.738Z,0.40
2022-10-23T07:10:49.598Z,0.57
2022-10-23T07:13:17.505Z,0.30
2022-10-23T07:15:46.862Z,0.35
2022-10-23T07:18:16.866Z,0.40
2022-10-23T07:20:46.956Z,0.35
2022-10-23T07:23:16.183Z,0.20
2022-10-23T07:25:44.215Z,0.73
2022-10-23T07:28:12.150Z,0.30
2022-10-23T07:30:40.976Z,0.47
2022-10-23T07:33:12.425Z,0.50
2022-10-23T07:35:40.857Z,0.40
2022-10-23T07:38:08.861Z,0.50
2022-10-23T07:40:36.729Z,0.30
2022-10-23T07:43:04.667Z,0.25
2022-10-23T07:45:32.636Z,0.30
2022-10-23T07:48:00.624Z,0.30
2022-10-23T07:50:29.974Z,0.50
2022-10-23T07:52:58.616Z,0.70
2022-10-23T07:55:26.646Z,0.70
2022-10-23T07:57:54.676Z,1.15
2022-10-23T08:02:50.695Z,1.63
2022-10-23T08:05:20.722Z,1.40
2022-10-23T08:07:50.165Z,0.80
2022-10-23T08:10:18.401Z,0.30
2022-10-23T08:12:46.469Z,1.67
2022-10-23T08:15:14.403Z,0.50
2022-10-23T08:17:42.714Z,0.95
2022-10-23T08:20:13.575Z,0.75
2022-10-23T08:22:41.613Z,0.65
2022-10-23T08:25:11.759Z,0.55
2022-10-23T08:27:40.047Z,0.20
2022-10-23T08:30:09.031Z,0.60
2022-10-23T08:32:37.019Z,0.45
2022-10-23T08:35:05.530Z,0.30
2022-10-23T08:37:33.664Z,0.20
2022-10-23T08:40:01.762Z,0.35
2022-10-23T08:42:31.347Z,0.35
2022-10-23T08:45:06.784Z,3.70
2022-10-23T08:47:40.368Z,1.88
2022-10-23T08:50:15.299Z,0.55
2022-10-23T08:52:50.383Z,0.60
2022-10-23T08:55:24.454Z,0.40
2022-10-23T08:58:00.200Z,0.35
2022-10-23T09:00:29.436Z,0.20
2022-10-23T09:02:57.865Z,0.73
2022-10-23T09:05:31.754Z,0.32
2022-10-23T09:08:10.263Z,0.30
2022-10-23T09:10:59.766Z,1.25
2022-10-23T09:13:46.479Z,0.32
2022-10-23T09:16:25.482Z,0.30
2022-10-23T09:18:54.539Z,0.40
2022-10-23T09:21:27.804Z,0.38
2022-10-23T09:23:55.850Z,0.60
2022-10-23T09:26:23.804Z,0.25
2022-10-23T09:28:58.066Z,0.50
2022-10-23T09:31:26.099Z,0.28
2022-10-23T09:33:59.643Z,0.60
2022-10-23T09:36:29.325Z,0.32
2022-10-23T09:39:00.021Z,0.43
2022-10-23T09:41:31.102Z,0.30
2022-10-23T09:44:18.435Z,0.50
2022-10-23T09:46:48.436Z,0.70
2022-10-23T09:49:21.841Z,0.98
2022-10-23T09:52:02.325Z,0.32
2022-10-23T09:54:32.922Z,0.30
2022-10-23T09:57:05.994Z,0.70
2022-10-23T09:59:35.543Z,0.30
2022-10-23T10:02:05.119Z,0.40
2022-10-23T10:04:35.389Z,0.30
2022-10-23T10:07:18.669Z,0.52
2022-10-23T10:09:46.822Z,0.40
2022-10-23T10:12:33.174Z,0.30
2022-10-23T10:15:16.396Z,0.50
2022-10-23T10:17:53.439Z,0.70
2022-10-23T10:20:41.628Z,0.40
2022-10-23T10:23:19.457Z,0.32
2022-10-23T10:25:57.402Z,0.30
2022-10-23T10:28:35.816Z,0.63
2022-10-23T10:31:15.863Z,0.52
2022-10-23T10:33:53.421Z,0.40
2022-10-23T10:36:35.177Z,0.40
2022-10-23T10:39:06.554Z,0.77
2022-10-23T10:41:45.259Z,0.45
2022-10-23T10:44:25.263Z,0.77
2022-10-23T10:46:59.767Z,0.90
2022-10-23T10:49:33.819Z,0.30
2022-10-23T10:52:11.263Z,0.80
2022-10-23T10:54:48.713Z,1.10
2022-10-23T10:57:28.173Z,1.10
2022-10-23T10:59:58.485Z,0.77
2022-10-23T11:02:46.421Z,0.80
2022-10-23T11:05:26.353Z,0.57
2022-10-23T11:07:57.844Z,0.32
2022-10-23T11:10:26.271Z,0.30
2022-10-23T11:12:54.272Z,0.43
2022-10-23T11:15:27.432Z,0.50
2022-10-23T11:18:00.370Z,0.20
2022-10-23T11:20:45.932Z,0.68
2022-10-23T11:23:56.390Z,0.47
2022-10-23T11:26:36.116Z,0.40
2022-10-23T11:29:40.782Z,0.80
2022-10-23T11:32:27.558Z,0.30
2022-10-23T11:35:25.118Z,0.30
2022-10-23T11:38:01.620Z,0.30
2022-10-23T11:40:30.529Z,0.30
2022-10-23T11:42:58.477Z,0.20
2022-10-23T11:45:33.033Z,0.40
2022-10-23T11:48:02.703Z,0.20
2022-10-23T11:50:34.610Z,0.55
2022-10-23T11:53:14.616Z,0.30
2022-10-23T11:56:02.484Z,0.65
2022-10-23T11:58:43.085Z,0.25
2022-10-23T12:01:27.045Z,0.50
2022-10-23T12:03:58.904Z,0.63
2022-10-23T12:06:30.315Z,0.20
2022-10-23T12:09:02.911Z,0.25
2022-10-23T12:11:43.794Z,0.20
2022-10-23T12:14:29.288Z,0.25
2022-10-23T12:16:57.453Z,0.30
2022-10-23T12:19:27.159Z,0.43
2022-10-23T12:22:00.355Z,0.43
2022-10-23T12:24:47.949Z,0.28
2022-10-23T12:27:27.806Z,0.47
2022-10-23T12:30:13.685Z,0.38
2022-10-23T12:32:54.517Z,0.20
2022-10-23T12:35:48.730Z,0.28
2022-10-23T12:38:21.267Z,0.28
2022-10-23T12:40:53.625Z,0.82
2022-10-23T12:43:28.915Z,0.32
2022-10-23T12:45:58.396Z,0.30
2022-10-23T12:48:26.421Z,0.20
2022-10-23T12:50:56.733Z,0.30
2022-10-23T12:53:26.231Z,0.30
2022-10-23T12:56:01.649Z,0.40
2022-10-23T12:58:32.035Z,0.38
2022-10-23T13:01:01.553Z,0.25
2022-10-23T13:03:31.574Z,0.20
2022-10-23T13:06:02.567Z,0.60
2022-10-23T13:08:35.626Z,0.30
2022-10-23T13:11:04.214Z,0.30
2022-10-23T13:13:42.631Z,0.30
2022-10-23T13:16:17.289Z,0.38
2022-10-23T13:18:45.318Z,0.50
2022-10-23T13:21:20.941Z,0.32
2022-10-23T13:23:50.802Z,0.40
2022-10-23T13:26:30.006Z,0.30
2022-10-23T13:28:58.718Z,0.32
2022-10-23T13:31:32.588Z,0.40
2022-10-23T13:34:20.227Z,0.38
2022-10-23T13:36:55.047Z,0.60
2022-10-23T13:39:30.683Z,0.40
2022-10-23T13:42:03.958Z,0.32
2022-10-23T13:44:32.507Z,0.40
2022-10-23T13:47:00.570Z,0.30
2022-10-23T13:49:28.616Z,0.45
2022-10-23T13:51:57.466Z,0.30
2022-10-23T13:56:57.784Z,0.55
2022-10-23T13:59:25.716Z,0.40
2022-10-23T14:01:53.753Z,0.60
2022-10-23T14:04:23.639Z,0.40
2022-10-23T14:06:54.730Z,0.40
2022-10-23T14:09:22.610Z,0.52
2022-10-23T14:11:51.893Z,0.40
2022-10-23T14:14:19.930Z,0.77
2022-10-23T14:16:47.886Z,0.77
2022-10-23T14:19:15.863Z,0.55
2022-10-23T14:21:43.784Z,0.52
2022-10-23T14:24:11.768Z,0.60
2022-10-23T14:26:39.650Z,0.63
2022-10-23T14:29:12.393Z,0.68
2022-10-23T14:31:46.658Z,0.73
2022-10-23T14:34:14.722Z,0.75
2022-10-23T14:36:50.118Z,0.50
2022-10-23T14:39:19.266Z,0.70
2022-10-23T14:41:47.281Z,0.63
2022-10-23T14:44:16.629Z,0.60
2022-10-23T14:46:44.800Z,0.50
2022-10-23T14:49:12.784Z,0.60
2022-10-23T14:51:40.769Z,0.65
2022-10-23T14:54:09.534Z,0.73
2022-10-23T14:56:39.358Z,0.60
2022-10-23T14:59:07.954Z,0.50
2022-10-23T15:01:43.680Z,0.77
2022-10-23T15:04:15.428Z,0.60
2022-10-23T15:06:43.777Z,0.88
2022-10-23T15:09:11.747Z,0.70
2022-10-23T15:11:40.156Z,0.77
2022-10-23T15:14:08.202Z,0.55
2022-10-23T15:16:41.367Z,0.60
2022-10-23T15:19:13.585Z,0.73
2022-10-23T15:21:45.285Z,0.82
2022-10-23T15:24:13.485Z,0.55
2022-10-23T15:26:43.249Z,0.55
2022-10-23T15:29:18.336Z,1.08
2022-10-23T15:31:54.980Z,0.55
2022-10-23T15:34:25.250Z,0.80
2022-10-23T15:36:55.053Z,0.88
2022-10-23T15:39:24.419Z,0.50
2022-10-23T15:41:54.149Z,0.95
2022-10-23T15:44:24.287Z,0.98
2022-10-23T15:46:53.733Z,0.60
2022-10-23T15:49:21.765Z,0.40
2022-10-23T15:51:49.601Z,0.85
2022-10-23T15:54:19.370Z,0.60
2022-10-23T15:56:48.839Z,0.77
2022-10-23T15:59:17.814Z,0.95
2022-10-23T16:01:45.971Z,1.27
2022-10-23T16:04:16.011Z,1.20
2022-10-23T16:06:45.139Z,1.25
2022-10-23T16:09:17.675Z,0.90
2022-10-23T16:11:45.723Z,0.95
2022-10-23T16:14:14.728Z,1.23
2022-10-23T16:16:43.272Z,0.98
2022-10-23T16:19:11.950Z,1.38
2022-10-23T16:21:41.358Z,1.02
2022-10-23T16:24:10.733Z,1.10
2022-10-23T16:26:39.295Z,1.27
2022-10-23T16:29:10.257Z,1.50
2022-10-23T16:31:38.331Z,1.08
2022-10-23T16:34:07.207Z,1.75
2022-10-23T16:36:39.191Z,1.77
2022-10-23T16:39:10.873Z,1.38
2022-10-23T16:41:38.858Z,2.80
2022-10-23T16:44:07.665Z,6.07
2022-10-23T16:46:36.066Z,4.13
2022-10-23T16:49:04.398Z,2.55
2022-10-23T16:51:33.326Z,1.98
2022-10-23T16:54:01.809Z,2.08
2022-10-23T16:56:31.629Z,2.00
2022-10-23T16:59:00.513Z,2.13
2022-10-23T17:01:31.684Z,2.22
2022-10-23T17:04:00.419Z,3.08
2022-10-23T17:06:30.313Z,1.80
2022-10-23T17:08:58.932Z,1.73
2022-10-23T17:11:28.634Z,1.80
2022-10-23T17:14:02.678Z,1.30
2022-10-23T17:16:34.419Z,1.40
2022-10-23T17:19:04.302Z,1.70
2022-10-23T17:21:39.094Z,1.77
2022-10-23T17:24:08.092Z,2.50
2022-10-23T17:26:36.401Z,2.13
2022-10-23T17:29:07.746Z,2.33
2022-10-23T17:31:37.366Z,2.20
2022-10-23T17:34:08.430Z,2.33
2022-10-23T17:36:39.943Z,1.83
2022-10-23T17:39:09.258Z,1.80
2022-10-23T17:41:38.268Z,1.92
2022-10-23T17:44:07.752Z,1.90
2022-10-23T17:46:35.818Z,1.65
2022-10-23T17:49:05.158Z,2.33
2022-10-23T17:51:36.270Z,2.20
2022-10-23T17:54:06.988Z,1.95
2022-10-23T17:56:37.594Z,2.10
2022-10-23T17:59:09.029Z,2.25
2022-10-23T18:01:37.542Z,2.20
2022-10-23T18:04:08.037Z,2.33
2022-10-23T18:06:38.327Z,2.45
2022-10-23T18:09:06.977Z,2.28
2022-10-23T18:11:37.135Z,2.22
2022-10-23T18:14:06.260Z,2.33
2022-10-23T18:16:39.550Z,2.38
2022-10-23T18:19:07.831Z,2.65
2022-10-23T18:21:35.875Z,2.50
2022-10-23T18:24:04.674Z,2.60
2022-10-23T18:26:34.955Z,3.30
2022-10-23T18:29:07.193Z,2.70
2022-10-23T18:31:37.749Z,2.95
2022-10-23T18:34:08.551Z,3.47
2022-10-23T18:36:39.346Z,2.60
2022-10-23T18:39:08.706Z,3.25
2022-10-23T18:41:38.666Z,2.72
2022-10-23T18:44:07.105Z,2.80
2022-10-23T18:46:37.189Z,2.80
2022-10-23T18:49:08.342Z,2.60
2022-10-23T18:51:37.978Z,2.70
2022-10-23T18:54:08.045Z,2.30
2022-10-23T18:56:38.352Z,2.70
2022-10-23T18:59:11.038Z,2.65
2022-10-23T19:04:08.388Z,2.92
2022-10-23T19:06:37.439Z,2.25
2022-10-23T19:09:07.616Z,2.50
2022-10-23T19:11:35.739Z,2.33
2022-10-23T19:14:03.840Z,2.17
2022-10-23T19:16:36.198Z,2.40
2022-10-23T19:19:12.062Z,2.20
2022-10-23T19:21:59.190Z,2.40
2022-10-23T19:24:50.572Z,2.22
2022-10-23T19:27:21.002Z,2.40
2022-10-23T19:29:50.355Z,2.67
2022-10-23T19:32:18.580Z,2.85
2022-10-23T19:34:48.074Z,3.10
2022-10-23T19:37:16.678Z,2.95
2022-10-23T19:39:44.659Z,3.28
2022-10-23T19:42:13.254Z,2.60
2022-10-23T19:44:41.264Z,3.05
2022-10-23T19:47:09.221Z,2.60
2022-10-23T19:49:37.178Z,2.40
2022-10-23T19:52:06.772Z,2.10
2022-10-23T19:54:34.778Z,2.33
2022-10-23T19:57:02.778Z,2.58
2022-10-23T19:59:30.802Z,2.28
2022-10-23T20:01:58.994Z,2.70
2022-10-23T20:04:28.799Z,2.65
2022-10-23T20:06:56.939Z,2.67
2022-10-23T20:09:26.266Z,2.80
2022-10-23T20:11:55.568Z,3.90
2022-10-23T20:14:23.556Z,3.40
2022-10-23T20:16:55.694Z,4.10
2022-10-23T20:19:24.494Z,3.65
2022-10-23T20:21:52.466Z,3.70
2022-10-23T20:24:21.670Z,3.22
2022-10-23T20:26:52.774Z,3.30
2022-10-23T20:29:21.165Z,2.58
2022-10-23T20:31:49.281Z,2.90
2022-10-23T20:34:18.914Z,2.72
2022-10-23T20:36:48.981Z,2.42
2022-10-23T20:39:20.205Z,2.63
2022-10-23T20:41:49.860Z,2.13
2022-10-23T20:44:19.342Z,2.60
2022-10-23T20:46:47.584Z,2.63
2022-10-23T20:49:15.840Z,2.25
2022-10-23T20:51:43.993Z,2.53
2022-10-23T20:54:12.201Z,2.40
2022-10-23T20:56:40.856Z,2.40
2022-10-23T20:59:14.078Z,3.10
2022-10-23T21:01:43.382Z,2.92
2022-10-23T21:04:13.336Z,2.60
2022-10-23T21:06:57.663Z,2.85
2022-10-23T21:09:31.367Z,3.03
2022-10-23T21:11:59.490Z,2.85
2022-10-23T21:14:28.788Z,3.13
2022-10-23T21:16:56.784Z,2.78
2022-10-23T21:19:24.688Z,3.83
2022-10-23T21:21:52.728Z,3.65
2022-10-23T21:24:20.775Z,2.83
2022-10-23T21:26:48.700Z,2.70
2022-10-23T21:29:19.421Z,2.85
2022-10-23T21:31:54.668Z,2.60
2022-10-23T21:34:22.734Z,2.83
2022-10-23T21:39:38.842Z,2.80
2022-10-23T21:42:06.959Z,3.00
2022-10-23T21:44:35.031Z,3.00
2022-10-23T21:47:04.588Z,2.47
2022-10-23T21:49:32.719Z,3.42
2022-10-23T21:52:00.666Z,2.88
2022-10-23T21:54:28.671Z,2.50
2022-10-23T21:56:56.602Z,2.60
2022-10-23T21:59:30.040Z,3.30
2022-10-23T22:01:59.668Z,2.70
2022-10-23T22:04:29.166Z,3.08
2022-10-23T22:06:57.312Z,2.75
2022-10-23T22:09:25.494Z,2.38
2022-10-23T22:11:54.751Z,3.15
2022-10-23T22:14:23.785Z,2.35
2022-10-23T22:16:52.173Z,3.05
2022-10-23T22:19:21.608Z,3.95
2022-10-23T22:21:51.832Z,2.55
2022-10-23T22:24:19.990Z,2.33
2022-10-23T22:26:49.799Z,2.63
2022-10-23T22:29:19.377Z,2.13
2022-10-23T22:31:49.786Z,2.45
2022-10-23T22:34:28.826Z,2.20
2022-10-23T22:37:10.569Z,3.17
2022-10-23T22:39:39.264Z,2.45
2022-10-23T22:42:07.483Z,2.65
2022-10-23T22:44:35.494Z,2.30
2022-10-23T22:47:03.546Z,1.48
2022-10-23T22:49:31.516Z,2.55
2022-10-23T22:51:59.701Z,3.00
2022-10-23T22:54:30.561Z,1.85
2022-10-23T22:56:58.990Z,2.20
2022-10-23T22:59:27.184Z,1.50
2022-10-23T23:01:55.714Z,1.90
2022-10-23T23:04:37.352Z,2.10
2022-10-23T23:07:06.143Z,1.63
2022-10-23T23:09:37.546Z,2.17
2022-10-23T23:12:05.643Z,1.80
2022-10-23T23:14:33.604Z,1.80
2022-10-23T23:17:01.583Z,2.40
2022-10-23T23:19:29.580Z,1.55
2022-10-23T23:21:58.505Z,2.10
2022-10-23T23:24:26.532Z,1.70
2022-10-23T23:26:55.847Z,2.00
2022-10-23T23:29:23.878Z,1.90
2022-10-23T23:31:51.786Z,1.83
2022-10-23T23:34:19.839Z,1.58
2022-10-23T23:36:47.918Z,2.15
2022-10-23T23:39:15.982Z,1.77
2022-10-23T23:42:06.025Z,2.05
2022-10-23T23:44:38.973Z,1.50
2022-10-23T23:47:13.932Z,2.33
2022-10-23T23:49:41.993Z,1.75
2022-10-23T23:52:10.065Z,2.38
2022-10-23T23:54:37.986Z,1.70
2022-10-23T23:57:07.338Z,2.03
2022-10-23T23:59:38.749Z,1.83
